sensor_id;sensor_type;location;lat;lon;timestamp;P1;durP1;ratioP1;P2;durP2;ratioP2
72920;SDS011;61064;51.654;5.476;2023-04-25T00:00:46;13.77;;;2.17;;
72920;SDS011;61064;51.654;5.476;2023-04-25T00:03:12;12.23;;;2.20;;
72920;SDS011;61064;51.654;5.476;2023-04-25T00:05:38;11.13;;;2.08;;
72920;SDS011;61064;51.654;5.476;2023-04-25T00:08:06;13.82;;;2.03;;
72920;SDS011;61064;51.654;5.476;2023-04-25T00:10:32;12.90;;;2.23;;
72920;SDS011;61064;51.654;5.476;2023-04-25T00:12:57;7.70;;;1.83;;
72920;SDS011;61064;51.654;5.476;2023-04-25T00:15:23;12.50;;;2.30;;
72920;SDS011;61064;51.654;5.476;2023-04-25T00:17:49;10.77;;;2.25;;
72920;SDS011;61064;51.654;5.476;2023-04-25T00:20:14;12.90;;;2.50;;
72920;SDS011;61064;51.654;5.476;2023-04-25T00:22:40;9.77;;;1.93;;
72920;SDS011;61064;51.654;5.476;2023-04-25T00:25:05;14.20;;;2.30;;
72920;SDS011;61064;51.654;5.476;2023-04-25T00:27:32;9.52;;;2.13;;
72920;SDS011;61064;51.654;5.476;2023-04-25T00:29:57;11.50;;;2.10;;
72920;SDS011;61064;51.654;5.476;2023-04-25T00:32:23;11.95;;;1.90;;
72920;SDS011;61064;51.654;5.476;2023-04-25T00:34:48;14.77;;;2.20;;
72920;SDS011;61064;51.654;5.476;2023-04-25T00:37:13;11.07;;;1.97;;
72920;SDS011;61064;51.654;5.476;2023-04-25T00:39:39;12.65;;;2.35;;
72920;SDS011;61064;51.654;5.476;2023-04-25T00:42:04;8.83;;;1.63;;
72920;SDS011;61064;51.654;5.476;2023-04-25T00:44:30;11.02;;;2.00;;
72920;SDS011;61064;51.654;5.476;2023-04-25T00:46:57;9.10;;;1.83;;
72920;SDS011;61064;51.654;5.476;2023-04-25T00:49:23;12.50;;;2.80;;
72920;SDS011;61064;51.654;5.476;2023-04-25T00:51:48;9.90;;;2.13;;
72920;SDS011;61064;51.654;5.476;2023-04-25T00:54:14;11.25;;;2.38;;
72920;SDS011;61064;51.654;5.476;2023-04-25T00:56:40;10.43;;;2.73;;
72920;SDS011;61064;51.654;5.476;2023-04-25T00:59:06;10.60;;;2.08;;
72920;SDS011;61064;51.654;5.476;2023-04-25T01:01:32;13.00;;;2.30;;
72920;SDS011;61064;51.654;5.476;2023-04-25T01:03:58;11.03;;;2.13;;
72920;SDS011;61064;51.654;5.476;2023-04-25T01:06:24;11.68;;;2.25;;
72920;SDS011;61064;51.654;5.476;2023-04-25T01:08:49;17.43;;;2.50;;
72920;SDS011;61064;51.654;5.476;2023-04-25T01:11:16;14.25;;;2.40;;
72920;SDS011;61064;51.654;5.476;2023-04-25T01:13:42;10.60;;;2.35;;
72920;SDS011;61064;51.654;5.476;2023-04-25T01:16:08;16.00;;;2.30;;
72920;SDS011;61064;51.654;5.476;2023-04-25T01:18:33;11.57;;;2.20;;
72920;SDS011;61064;51.654;5.476;2023-04-25T01:21:09;14.97;;;2.43;;
72920;SDS011;61064;51.654;5.476;2023-04-25T01:23:35;15.65;;;2.53;;
72920;SDS011;61064;51.654;5.476;2023-04-25T01:26:03;10.83;;;2.00;;
72920;SDS011;61064;51.654;5.476;2023-04-25T01:28:29;12.60;;;2.33;;
72920;SDS011;61064;51.654;5.476;2023-04-25T01:30:54;15.82;;;2.53;;
72920;SDS011;61064;51.654;5.476;2023-04-25T01:33:21;14.60;;;3.05;;
72920;SDS011;61064;51.654;5.476;2023-04-25T01:35:46;17.63;;;2.60;;
72920;SDS011;61064;51.654;5.476;2023-04-25T01:38:12;16.43;;;2.83;;
72920;SDS011;61064;51.654;5.476;2023-04-25T01:40:38;12.48;;;2.50;;
72920;SDS011;61064;51.654;5.476;2023-04-25T01:43:05;18.95;;;3.10;;
72920;SDS011;61064;51.654;5.476;2023-04-25T01:45:30;12.80;;;2.40;;
72920;SDS011;61064;51.654;5.476;2023-04-25T01:47:55;17.15;;;2.75;;
72920;SDS011;61064;51.654;5.476;2023-04-25T01:50:24;16.67;;;3.00;;
72920;SDS011;61064;51.654;5.476;2023-04-25T01:52:50;9.57;;;2.50;;
72920;SDS011;61064;51.654;5.476;2023-04-25T01:55:16;14.07;;;2.97;;
72920;SDS011;61064;51.654;5.476;2023-04-25T01:57:41;17.47;;;2.97;;
72920;SDS011;61064;51.654;5.476;2023-04-25T02:00:09;14.57;;;2.87;;
72920;SDS011;61064;51.654;5.476;2023-04-25T02:02:35;10.93;;;2.63;;
72920;SDS011;61064;51.654;5.476;2023-04-25T02:05:01;13.97;;;2.70;;
72920;SDS011;61064;51.654;5.476;2023-04-25T02:07:26;15.10;;;2.88;;
72920;SDS011;61064;51.654;5.476;2023-04-25T02:09:52;12.20;;;3.27;;
72920;SDS011;61064;51.654;5.476;2023-04-25T02:12:17;13.50;;;2.70;;
72920;SDS011;61064;51.654;5.476;2023-04-25T02:14:43;11.83;;;2.40;;
72920;SDS011;61064;51.654;5.476;2023-04-25T02:17:08;13.90;;;2.45;;
72920;SDS011;61064;51.654;5.476;2023-04-25T02:19:33;10.77;;;2.53;;
72920;SDS011;61064;51.654;5.476;2023-04-25T02:21:59;17.80;;;2.60;;
72920;SDS011;61064;51.654;5.476;2023-04-25T02:24:24;14.70;;;2.60;;
72920;SDS011;61064;51.654;5.476;2023-04-25T02:26:50;12.80;;;2.50;;
72920;SDS011;61064;51.654;5.476;2023-04-25T02:29:15;15.30;;;2.57;;
72920;SDS011;61064;51.654;5.476;2023-04-25T02:31:41;12.97;;;3.03;;
72920;SDS011;61064;51.654;5.476;2023-04-25T02:34:06;13.17;;;2.87;;
72920;SDS011;61064;51.654;5.476;2023-04-25T02:36:32;15.23;;;3.07;;
72920;SDS011;61064;51.654;5.476;2023-04-25T02:38:59;13.77;;;2.60;;
72920;SDS011;61064;51.654;5.476;2023-04-25T02:41:25;14.83;;;2.87;;
72920;SDS011;61064;51.654;5.476;2023-04-25T02:43:51;16.23;;;3.13;;
72920;SDS011;61064;51.654;5.476;2023-04-25T02:46:16;19.10;;;2.80;;
72920;SDS011;61064;51.654;5.476;2023-04-25T02:48:41;14.57;;;2.60;;
72920;SDS011;61064;51.654;5.476;2023-04-25T02:51:07;14.37;;;2.67;;
72920;SDS011;61064;51.654;5.476;2023-04-25T02:53:32;12.33;;;3.10;;
72920;SDS011;61064;51.654;5.476;2023-04-25T02:55:57;13.17;;;2.47;;
72920;SDS011;61064;51.654;5.476;2023-04-25T02:58:24;15.37;;;3.30;;
72920;SDS011;61064;51.654;5.476;2023-04-25T03:00:49;11.63;;;2.30;;
72920;SDS011;61064;51.654;5.476;2023-04-25T03:03:15;14.33;;;3.03;;
72920;SDS011;61064;51.654;5.476;2023-04-25T03:05:43;17.45;;;3.10;;
72920;SDS011;61064;51.654;5.476;2023-04-25T03:08:08;14.57;;;2.80;;
72920;SDS011;61064;51.654;5.476;2023-04-25T03:10:34;14.47;;;2.83;;
72920;SDS011;61064;51.654;5.476;2023-04-25T03:12:59;13.63;;;2.73;;
72920;SDS011;61064;51.654;5.476;2023-04-25T03:15:24;16.17;;;2.60;;
72920;SDS011;61064;51.654;5.476;2023-04-25T03:17:50;18.17;;;3.67;;
72920;SDS011;61064;51.654;5.476;2023-04-25T03:20:15;17.03;;;3.10;;
72920;SDS011;61064;51.654;5.476;2023-04-25T03:22:41;15.23;;;2.85;;
72920;SDS011;61064;51.654;5.476;2023-04-25T03:25:06;11.80;;;2.67;;
72920;SDS011;61064;51.654;5.476;2023-04-25T03:27:32;14.80;;;3.10;;
72920;SDS011;61064;51.654;5.476;2023-04-25T03:29:58;14.13;;;2.97;;
72920;SDS011;61064;51.654;5.476;2023-04-25T03:32:23;16.73;;;2.60;;
72920;SDS011;61064;51.654;5.476;2023-04-25T03:34:49;15.43;;;3.05;;
72920;SDS011;61064;51.654;5.476;2023-04-25T03:37:14;16.50;;;2.70;;
72920;SDS011;61064;51.654;5.476;2023-04-25T03:39:42;13.30;;;2.70;;
72920;SDS011;61064;51.654;5.476;2023-04-25T03:42:08;14.93;;;3.17;;
72920;SDS011;61064;51.654;5.476;2023-04-25T03:44:33;13.00;;;2.73;;
72920;SDS011;61064;51.654;5.476;2023-04-25T03:46:59;15.67;;;3.27;;
72920;SDS011;61064;51.654;5.476;2023-04-25T03:49:24;15.90;;;3.07;;
72920;SDS011;61064;51.654;5.476;2023-04-25T03:51:50;12.25;;;2.70;;
72920;SDS011;61064;51.654;5.476;2023-04-25T03:54:15;15.87;;;2.83;;
72920;SDS011;61064;51.654;5.476;2023-04-25T03:56:40;17.13;;;3.03;;
72920;SDS011;61064;51.654;5.476;2023-04-25T03:59:06;18.33;;;2.70;;
72920;SDS011;61064;51.654;5.476;2023-04-25T04:01:31;16.93;;;3.10;;
72920;SDS011;61064;51.654;5.476;2023-04-25T04:03:56;17.87;;;3.53;;
72920;SDS011;61064;51.654;5.476;2023-04-25T04:06:22;14.90;;;2.90;;
72920;SDS011;61064;51.654;5.476;2023-04-25T04:08:47;16.37;;;2.83;;
72920;SDS011;61064;51.654;5.476;2023-04-25T04:11:12;13.60;;;2.93;;
72920;SDS011;61064;51.654;5.476;2023-04-25T04:13:38;14.70;;;3.17;;
72920;SDS011;61064;51.654;5.476;2023-04-25T04:16:03;14.80;;;3.30;;
72920;SDS011;61064;51.654;5.476;2023-04-25T04:18:29;14.52;;;2.65;;
72920;SDS011;61064;51.654;5.476;2023-04-25T04:20:55;14.03;;;2.90;;
72920;SDS011;61064;51.654;5.476;2023-04-25T04:23:22;10.93;;;2.97;;
72920;SDS011;61064;51.654;5.476;2023-04-25T04:25:48;20.67;;;3.23;;
72920;SDS011;61064;51.654;5.476;2023-04-25T04:28:17;16.53;;;3.47;;
72920;SDS011;61064;51.654;5.476;2023-04-25T04:30:42;14.90;;;2.90;;
72920;SDS011;61064;51.654;5.476;2023-04-25T04:33:10;21.17;;;3.78;;
72920;SDS011;61064;51.654;5.476;2023-04-25T04:35:37;17.17;;;3.20;;
72920;SDS011;61064;51.654;5.476;2023-04-25T04:38:02;15.73;;;3.13;;
72920;SDS011;61064;51.654;5.476;2023-04-25T04:40:28;18.20;;;2.93;;
72920;SDS011;61064;51.654;5.476;2023-04-25T04:42:55;17.30;;;3.83;;
72920;SDS011;61064;51.654;5.476;2023-04-25T04:45:22;11.32;;;2.63;;
72920;SDS011;61064;51.654;5.476;2023-04-25T04:47:48;24.53;;;4.90;;
72920;SDS011;61064;51.654;5.476;2023-04-25T04:50:13;22.43;;;3.90;;
72920;SDS011;61064;51.654;5.476;2023-04-25T04:52:39;15.53;;;2.80;;
72920;SDS011;61064;51.654;5.476;2023-04-25T04:55:05;19.90;;;3.80;;
72920;SDS011;61064;51.654;5.476;2023-04-25T04:57:31;13.47;;;2.97;;
72920;SDS011;61064;51.654;5.476;2023-04-25T04:59:58;14.38;;;2.83;;
72920;SDS011;61064;51.654;5.476;2023-04-25T05:02:24;13.52;;;2.80;;
72920;SDS011;61064;51.654;5.476;2023-04-25T05:04:50;17.02;;;3.35;;
72920;SDS011;61064;51.654;5.476;2023-04-25T05:07:16;10.50;;;2.75;;
72920;SDS011;61064;51.654;5.476;2023-04-25T05:09:42;14.83;;;3.13;;
72920;SDS011;61064;51.654;5.476;2023-04-25T05:12:07;14.30;;;3.13;;
72920;SDS011;61064;51.654;5.476;2023-04-25T05:14:32;17.57;;;3.23;;
72920;SDS011;61064;51.654;5.476;2023-04-25T05:16:58;19.27;;;3.17;;
72920;SDS011;61064;51.654;5.476;2023-04-25T05:19:23;14.53;;;3.47;;
72920;SDS011;61064;51.654;5.476;2023-04-25T05:21:49;14.60;;;3.13;;
72920;SDS011;61064;51.654;5.476;2023-04-25T05:24:14;14.43;;;2.97;;
72920;SDS011;61064;51.654;5.476;2023-04-25T05:26:41;16.42;;;4.40;;
72920;SDS011;61064;51.654;5.476;2023-04-25T05:29:07;18.48;;;4.28;;
72920;SDS011;61064;51.654;5.476;2023-04-25T05:31:32;12.80;;;3.17;;
72920;SDS011;61064;51.654;5.476;2023-04-25T05:33:58;12.93;;;2.80;;
72920;SDS011;61064;51.654;5.476;2023-04-25T05:36:23;12.20;;;2.83;;
72920;SDS011;61064;51.654;5.476;2023-04-25T05:38:48;14.97;;;2.87;;
72920;SDS011;61064;51.654;5.476;2023-04-25T05:41:14;13.18;;;3.10;;
72920;SDS011;61064;51.654;5.476;2023-04-25T05:43:39;17.17;;;3.30;;
72920;SDS011;61064;51.654;5.476;2023-04-25T05:46:10;17.25;;;2.85;;
72920;SDS011;61064;51.654;5.476;2023-04-25T05:48:35;17.03;;;3.10;;
72920;SDS011;61064;51.654;5.476;2023-04-25T05:51:00;11.73;;;3.53;;
72920;SDS011;61064;51.654;5.476;2023-04-25T05:53:26;13.17;;;2.87;;
72920;SDS011;61064;51.654;5.476;2023-04-25T05:55:51;12.57;;;2.90;;
72920;SDS011;61064;51.654;5.476;2023-04-25T05:58:17;14.07;;;2.70;;
72920;SDS011;61064;51.654;5.476;2023-04-25T06:00:42;13.80;;;2.40;;
72920;SDS011;61064;51.654;5.476;2023-04-25T06:03:07;10.33;;;2.80;;
72920;SDS011;61064;51.654;5.476;2023-04-25T06:05:34;11.60;;;2.00;;
72920;SDS011;61064;51.654;5.476;2023-04-25T06:08:00;13.85;;;2.45;;
72920;SDS011;61064;51.654;5.476;2023-04-25T06:10:26;8.97;;;2.57;;
72920;SDS011;61064;51.654;5.476;2023-04-25T06:12:51;11.27;;;1.97;;
72920;SDS011;61064;51.654;5.476;2023-04-25T06:15:16;8.07;;;1.87;;
72920;SDS011;61064;51.654;5.476;2023-04-25T06:17:42;12.27;;;1.90;;
72920;SDS011;61064;51.654;5.476;2023-04-25T06:20:07;11.93;;;3.27;;
72920;SDS011;61064;51.654;5.476;2023-04-25T06:22:33;12.47;;;2.60;;
72920;SDS011;61064;51.654;5.476;2023-04-25T06:24:59;9.85;;;1.77;;
72920;SDS011;61064;51.654;5.476;2023-04-25T06:27:25;8.80;;;1.77;;
72920;SDS011;61064;51.654;5.476;2023-04-25T06:29:50;12.57;;;1.80;;
72920;SDS011;61064;51.654;5.476;2023-04-25T06:32:16;10.27;;;2.00;;
72920;SDS011;61064;51.654;5.476;2023-04-25T06:34:43;9.35;;;1.80;;
72920;SDS011;61064;51.654;5.476;2023-04-25T06:37:08;12.33;;;1.90;;
72920;SDS011;61064;51.654;5.476;2023-04-25T06:39:33;12.17;;;2.37;;
72920;SDS011;61064;51.654;5.476;2023-04-25T06:41:59;8.33;;;1.80;;
72920;SDS011;61064;51.654;5.476;2023-04-25T06:44:24;8.67;;;1.53;;
72920;SDS011;61064;51.654;5.476;2023-04-25T06:46:51;8.98;;;1.40;;
72920;SDS011;61064;51.654;5.476;2023-04-25T06:49:16;9.43;;;1.60;;
72920;SDS011;61064;51.654;5.476;2023-04-25T06:51:42;8.53;;;1.47;;
72920;SDS011;61064;51.654;5.476;2023-04-25T06:54:07;8.23;;;1.47;;
72920;SDS011;61064;51.654;5.476;2023-04-25T06:56:32;7.53;;;1.47;;
72920;SDS011;61064;51.654;5.476;2023-04-25T06:58:58;8.70;;;1.27;;
72920;SDS011;61064;51.654;5.476;2023-04-25T07:01:25;12.47;;;1.57;;
72920;SDS011;61064;51.654;5.476;2023-04-25T07:03:50;9.20;;;1.45;;
72920;SDS011;61064;51.654;5.476;2023-04-25T07:06:16;8.37;;;1.77;;
72920;SDS011;61064;51.654;5.476;2023-04-25T07:08:41;10.00;;;1.30;;
72920;SDS011;61064;51.654;5.476;2023-04-25T07:11:06;9.97;;;1.53;;
72920;SDS011;61064;51.654;5.476;2023-04-25T07:13:32;9.00;;;1.47;;
72920;SDS011;61064;51.654;5.476;2023-04-25T07:15:57;9.60;;;1.40;;
72920;SDS011;61064;51.654;5.476;2023-04-25T07:18:23;9.85;;;2.38;;
72920;SDS011;61064;51.654;5.476;2023-04-25T07:20:48;8.13;;;1.50;;
72920;SDS011;61064;51.654;5.476;2023-04-25T07:23:13;9.60;;;1.40;;
72920;SDS011;61064;51.654;5.476;2023-04-25T07:25:39;6.63;;;1.10;;
72920;SDS011;61064;51.654;5.476;2023-04-25T07:28:04;7.60;;;1.27;;
72920;SDS011;61064;51.654;5.476;2023-04-25T07:30:30;8.38;;;1.15;;
72920;SDS011;61064;51.654;5.476;2023-04-25T07:32:55;9.00;;;1.20;;
72920;SDS011;61064;51.654;5.476;2023-04-25T07:35:21;11.20;;;1.40;;
72920;SDS011;61064;51.654;5.476;2023-04-25T07:37:46;7.65;;;1.08;;
72920;SDS011;61064;51.654;5.476;2023-04-25T07:40:11;10.70;;;1.30;;
72920;SDS011;61064;51.654;5.476;2023-04-25T07:42:37;7.67;;;1.47;;
72920;SDS011;61064;51.654;5.476;2023-04-25T07:45:09;6.40;;;1.00;;
72920;SDS011;61064;51.654;5.476;2023-04-25T07:47:35;8.02;;;1.23;;
72920;SDS011;61064;51.654;5.476;2023-04-25T07:50:01;5.65;;;0.80;;
72920;SDS011;61064;51.654;5.476;2023-04-25T07:52:27;10.32;;;1.00;;
72920;SDS011;61064;51.654;5.476;2023-04-25T07:54:52;6.43;;;1.03;;
72920;SDS011;61064;51.654;5.476;2023-04-25T07:57:18;7.90;;;0.80;;
72920;SDS011;61064;51.654;5.476;2023-04-25T07:59:44;11.47;;;1.10;;
72920;SDS011;61064;51.654;5.476;2023-04-25T08:02:09;8.38;;;1.20;;
72920;SDS011;61064;51.654;5.476;2023-04-25T08:04:35;10.93;;;1.10;;
72920;SDS011;61064;51.654;5.476;2023-04-25T08:07:00;8.73;;;0.90;;
72920;SDS011;61064;51.654;5.476;2023-04-25T08:09:26;12.47;;;1.10;;
72920;SDS011;61064;51.654;5.476;2023-04-25T08:11:51;9.07;;;1.00;;
72920;SDS011;61064;51.654;5.476;2023-04-25T08:14:16;13.93;;;1.30;;
72920;SDS011;61064;51.654;5.476;2023-04-25T08:16:42;10.67;;;1.70;;
72920;SDS011;61064;51.654;5.476;2023-04-25T08:19:07;6.70;;;0.80;;
72920;SDS011;61064;51.654;5.476;2023-04-25T08:21:35;8.05;;;1.02;;
72920;SDS011;61064;51.654;5.476;2023-04-25T08:24:03;7.23;;;0.93;;
72920;SDS011;61064;51.654;5.476;2023-04-25T08:26:29;7.25;;;0.90;;
72920;SDS011;61064;51.654;5.476;2023-04-25T08:28:54;11.40;;;1.30;;
72920;SDS011;61064;51.654;5.476;2023-04-25T08:31:20;9.07;;;1.20;;
72920;SDS011;61064;51.654;5.476;2023-04-25T08:33:45;9.35;;;1.27;;
72920;SDS011;61064;51.654;5.476;2023-04-25T08:36:11;9.27;;;1.17;;
72920;SDS011;61064;51.654;5.476;2023-04-25T08:38:36;10.43;;;1.30;;
72920;SDS011;61064;51.654;5.476;2023-04-25T08:41:02;8.67;;;1.20;;
72920;SDS011;61064;51.654;5.476;2023-04-25T08:43:27;8.77;;;1.50;;
72920;SDS011;61064;51.654;5.476;2023-04-25T08:45:54;7.53;;;1.50;;
72920;SDS011;61064;51.654;5.476;2023-04-25T08:48:24;10.20;;;1.23;;
72920;SDS011;61064;51.654;5.476;2023-04-25T08:50:53;8.02;;;0.95;;
72920;SDS011;61064;51.654;5.476;2023-04-25T08:53:25;8.90;;;1.10;;
72920;SDS011;61064;51.654;5.476;2023-04-25T08:55:56;8.20;;;0.95;;
72920;SDS011;61064;51.654;5.476;2023-04-25T08:58:22;12.13;;;1.07;;
72920;SDS011;61064;51.654;5.476;2023-04-25T09:00:48;9.75;;;0.88;;
72920;SDS011;61064;51.654;5.476;2023-04-25T09:03:14;10.77;;;2.00;;
72920;SDS011;61064;51.654;5.476;2023-04-25T09:05:41;9.80;;;1.20;;
72920;SDS011;61064;51.654;5.476;2023-04-25T09:08:07;10.57;;;1.10;;
72920;SDS011;61064;51.654;5.476;2023-04-25T09:10:33;11.07;;;1.00;;
72920;SDS011;61064;51.654;5.476;2023-04-25T09:18:21;7.20;;;1.23;;
72920;SDS011;61064;51.654;5.476;2023-04-25T09:21:08;6.63;;;0.70;;
72920;SDS011;61064;51.654;5.476;2023-04-25T09:23:41;6.97;;;0.80;;
72920;SDS011;61064;51.654;5.476;2023-04-25T09:26:09;7.40;;;0.90;;
72920;SDS011;61064;51.654;5.476;2023-04-25T09:28:35;4.93;;;0.70;;
72920;SDS011;61064;51.654;5.476;2023-04-25T09:31:01;5.88;;;0.73;;
72920;SDS011;61064;51.654;5.476;2023-04-25T09:33:33;7.47;;;0.87;;
72920;SDS011;61064;51.654;5.476;2023-04-25T09:36:10;8.87;;;0.80;;
72920;SDS011;61064;51.654;5.476;2023-04-25T09:38:41;9.20;;;1.10;;
72920;SDS011;61064;51.654;5.476;2023-04-25T09:41:10;7.43;;;1.00;;
72920;SDS011;61064;51.654;5.476;2023-04-25T09:43:36;7.25;;;0.80;;
72920;SDS011;61064;51.654;5.476;2023-04-25T09:46:02;4.87;;;0.67;;
72920;SDS011;61064;51.654;5.476;2023-04-25T09:48:32;5.32;;;0.80;;
72920;SDS011;61064;51.654;5.476;2023-04-25T09:51:11;7.13;;;0.70;;
72920;SDS011;61064;51.654;5.476;2023-04-25T09:53:44;5.63;;;0.63;;
72920;SDS011;61064;51.654;5.476;2023-04-25T09:56:12;7.15;;;0.80;;
72920;SDS011;61064;51.654;5.476;2023-04-25T09:58:39;4.43;;;0.67;;
72920;SDS011;61064;51.654;5.476;2023-04-25T10:01:06;6.87;;;0.80;;
72920;SDS011;61064;51.654;5.476;2023-04-25T10:03:33;4.93;;;0.80;;
72920;SDS011;61064;51.654;5.476;2023-04-25T10:06:01;5.78;;;0.73;;
72920;SDS011;61064;51.654;5.476;2023-04-25T10:08:30;7.80;;;0.63;;
72920;SDS011;61064;51.654;5.476;2023-04-25T10:11:01;7.60;;;0.90;;
72920;SDS011;61064;51.654;5.476;2023-04-25T10:13:31;3.60;;;0.57;;
72920;SDS011;61064;51.654;5.476;2023-04-25T10:15:58;5.28;;;0.60;;
72920;SDS011;61064;51.654;5.476;2023-04-25T10:18:25;7.03;;;1.05;;
72920;SDS011;61064;51.654;5.476;2023-04-25T10:20:56;6.35;;;0.75;;
72920;SDS011;61064;51.654;5.476;2023-04-25T10:23:25;6.75;;;0.75;;
72920;SDS011;61064;51.654;5.476;2023-04-25T10:25:52;7.90;;;1.03;;
72920;SDS011;61064;51.654;5.476;2023-04-25T10:28:19;6.80;;;0.70;;
72920;SDS011;61064;51.654;5.476;2023-04-25T10:30:58;7.03;;;0.80;;
72920;SDS011;61064;51.654;5.476;2023-04-25T10:33:35;7.22;;;0.63;;
72920;SDS011;61064;51.654;5.476;2023-04-25T10:36:15;6.85;;;1.00;;
72920;SDS011;61064;51.654;5.476;2023-04-25T10:38:43;7.03;;;0.80;;
72920;SDS011;61064;51.654;5.476;2023-04-25T10:41:10;4.53;;;0.50;;
72920;SDS011;61064;51.654;5.476;2023-04-25T10:43:41;8.20;;;0.80;;
72920;SDS011;61064;51.654;5.476;2023-04-25T10:46:18;6.10;;;0.70;;
72920;SDS011;61064;51.654;5.476;2023-04-25T10:49:09;6.30;;;1.00;;
72920;SDS011;61064;51.654;5.476;2023-04-25T10:51:36;7.97;;;0.90;;
72920;SDS011;61064;51.654;5.476;2023-04-25T10:54:02;5.97;;;0.80;;
72920;SDS011;61064;51.654;5.476;2023-04-25T10:56:33;7.55;;;0.90;;
72920;SDS011;61064;51.654;5.476;2023-04-25T11:01:39;9.70;;;1.10;;
72920;SDS011;61064;51.654;5.476;2023-04-25T11:04:26;5.30;;;1.03;;
72920;SDS011;61064;51.654;5.476;2023-04-25T11:07:00;6.95;;;0.90;;
72920;SDS011;61064;51.654;5.476;2023-04-25T11:09:28;6.28;;;0.88;;
72920;SDS011;61064;51.654;5.476;2023-04-25T11:11:55;6.68;;;1.00;;
72920;SDS011;61064;51.654;5.476;2023-04-25T11:14:23;4.95;;;0.70;;
72920;SDS011;61064;51.654;5.476;2023-04-25T11:16:53;9.07;;;1.00;;
72920;SDS011;61064;51.654;5.476;2023-04-25T11:19:23;8.45;;;0.80;;
72920;SDS011;61064;51.654;5.476;2023-04-25T11:21:50;10.32;;;0.95;;
72920;SDS011;61064;51.654;5.476;2023-04-25T11:24:19;7.32;;;1.27;;
72920;SDS011;61064;51.654;5.476;2023-04-25T11:26:46;9.87;;;0.80;;
72920;SDS011;61064;51.654;5.476;2023-04-25T11:29:12;5.75;;;0.50;;
72920;SDS011;61064;51.654;5.476;2023-04-25T11:31:38;4.63;;;0.67;;
72920;SDS011;61064;51.654;5.476;2023-04-25T11:34:03;5.17;;;0.57;;
72920;SDS011;61064;51.654;5.476;2023-04-25T11:36:29;6.70;;;0.80;;
72920;SDS011;61064;51.654;5.476;2023-04-25T11:38:55;5.43;;;0.60;;
72920;SDS011;61064;51.654;5.476;2023-04-25T11:41:21;6.25;;;0.60;;
72920;SDS011;61064;51.654;5.476;2023-04-25T11:43:47;5.97;;;0.50;;
72920;SDS011;61064;51.654;5.476;2023-04-25T11:46:13;4.00;;;0.50;;
72920;SDS011;61064;51.654;5.476;2023-04-25T11:48:42;5.40;;;0.80;;
72920;SDS011;61064;51.654;5.476;2023-04-25T11:51:08;5.68;;;0.55;;
72920;SDS011;61064;51.654;5.476;2023-04-25T11:53:34;7.93;;;0.50;;
72920;SDS011;61064;51.654;5.476;2023-04-25T11:56:00;4.30;;;0.50;;
72920;SDS011;61064;51.654;5.476;2023-04-25T11:58:26;6.40;;;0.70;;
72920;SDS011;61064;51.654;5.476;2023-04-25T12:00:51;6.85;;;0.60;;
72920;SDS011;61064;51.654;5.476;2023-04-25T12:03:17;3.23;;;0.40;;
72920;SDS011;61064;51.654;5.476;2023-04-25T12:05:44;6.85;;;0.60;;
72920;SDS011;61064;51.654;5.476;2023-04-25T12:08:14;5.88;;;0.40;;
72920;SDS011;61064;51.654;5.476;2023-04-25T12:10:59;3.60;;;0.45;;
72920;SDS011;61064;51.654;5.476;2023-04-25T12:13:25;3.13;;;0.50;;
72920;SDS011;61064;51.654;5.476;2023-04-25T12:15:55;5.88;;;0.60;;
72920;SDS011;61064;51.654;5.476;2023-04-25T12:18:23;4.05;;;0.32;;
72920;SDS011;61064;51.654;5.476;2023-04-25T12:20:51;3.55;;;0.43;;
72920;SDS011;61064;51.654;5.476;2023-04-25T12:23:27;4.25;;;0.50;;
72920;SDS011;61064;51.654;5.476;2023-04-25T12:25:55;5.50;;;0.50;;
72920;SDS011;61064;51.654;5.476;2023-04-25T12:28:22;6.22;;;0.98;;
72920;SDS011;61064;51.654;5.476;2023-04-25T12:33:27;4.47;;;0.60;;
72920;SDS011;61064;51.654;5.476;2023-04-25T12:35:57;4.53;;;0.75;;
72920;SDS011;61064;51.654;5.476;2023-04-25T12:38:27;4.63;;;0.70;;
72920;SDS011;61064;51.654;5.476;2023-04-25T12:40:57;5.15;;;0.60;;
72920;SDS011;61064;51.654;5.476;2023-04-25T12:43:23;6.68;;;0.82;;
72920;SDS011;61064;51.654;5.476;2023-04-25T12:45:50;6.53;;;0.80;;
72920;SDS011;61064;51.654;5.476;2023-04-25T12:48:19;8.13;;;0.80;;
72920;SDS011;61064;51.654;5.476;2023-04-25T12:50:52;3.88;;;0.70;;
72920;SDS011;61064;51.654;5.476;2023-04-25T12:53:18;5.23;;;0.60;;
72920;SDS011;61064;51.654;5.476;2023-04-25T12:55:45;3.83;;;0.50;;
72920;SDS011;61064;51.654;5.476;2023-04-25T12:58:12;5.15;;;0.50;;
72920;SDS011;61064;51.654;5.476;2023-04-25T13:00:42;4.53;;;0.60;;
72920;SDS011;61064;51.654;5.476;2023-04-25T13:03:08;5.22;;;0.50;;
72920;SDS011;61064;51.654;5.476;2023-04-25T13:05:34;5.37;;;0.53;;
72920;SDS011;61064;51.654;5.476;2023-04-25T13:08:00;6.55;;;0.55;;
72920;SDS011;61064;51.654;5.476;2023-04-25T13:10:26;6.10;;;0.70;;
72920;SDS011;61064;51.654;5.476;2023-04-25T13:12:51;5.70;;;0.60;;
72920;SDS011;61064;51.654;5.476;2023-04-25T13:15:17;6.30;;;0.70;;
72920;SDS011;61064;51.654;5.476;2023-04-25T13:17:42;5.67;;;0.70;;
72920;SDS011;61064;51.654;5.476;2023-04-25T13:20:08;6.37;;;0.70;;
72920;SDS011;61064;51.654;5.476;2023-04-25T13:22:35;4.05;;;0.55;;
72920;SDS011;61064;51.654;5.476;2023-04-25T13:25:04;4.97;;;0.63;;
72920;SDS011;61064;51.654;5.476;2023-04-25T13:27:31;5.45;;;0.80;;
72920;SDS011;61064;51.654;5.476;2023-04-25T13:29:58;5.70;;;0.60;;
72920;SDS011;61064;51.654;5.476;2023-04-25T13:32:25;5.17;;;0.60;;
72920;SDS011;61064;51.654;5.476;2023-04-25T13:34:51;7.43;;;0.80;;
72920;SDS011;61064;51.654;5.476;2023-04-25T13:37:16;7.65;;;1.00;;
72920;SDS011;61064;51.654;5.476;2023-04-25T13:39:42;7.47;;;0.83;;
72920;SDS011;61064;51.654;5.476;2023-04-25T13:42:07;7.17;;;0.83;;
72920;SDS011;61064;51.654;5.476;2023-04-25T13:44:32;5.27;;;0.90;;
72920;SDS011;61064;51.654;5.476;2023-04-25T13:46:58;5.23;;;0.73;;
72920;SDS011;61064;51.654;5.476;2023-04-25T13:49:25;4.45;;;0.60;;
72920;SDS011;61064;51.654;5.476;2023-04-25T13:51:51;7.25;;;0.95;;
72920;SDS011;61064;51.654;5.476;2023-04-25T13:54:16;6.27;;;0.80;;
72920;SDS011;61064;51.654;5.476;2023-04-25T13:56:41;8.97;;;0.70;;
72920;SDS011;61064;51.654;5.476;2023-04-25T13:59:07;4.47;;;0.70;;
72920;SDS011;61064;51.654;5.476;2023-04-25T14:01:32;4.57;;;0.63;;
72920;SDS011;61064;51.654;5.476;2023-04-25T14:04:00;6.57;;;1.05;;
72920;SDS011;61064;51.654;5.476;2023-04-25T14:06:25;5.53;;;0.90;;
72920;SDS011;61064;51.654;5.476;2023-04-25T14:08:52;8.32;;;1.00;;
72920;SDS011;61064;51.654;5.476;2023-04-25T14:11:18;6.13;;;0.60;;
72920;SDS011;61064;51.654;5.476;2023-04-25T14:13:44;6.57;;;1.17;;
72920;SDS011;61064;51.654;5.476;2023-04-25T14:16:10;6.00;;;0.75;;
72920;SDS011;61064;51.654;5.476;2023-04-25T14:18:35;7.13;;;0.77;;
72920;SDS011;61064;51.654;5.476;2023-04-25T14:21:00;9.20;;;1.20;;
72920;SDS011;61064;51.654;5.476;2023-04-25T14:23:26;7.33;;;1.00;;
72920;SDS011;61064;51.654;5.476;2023-04-25T14:25:51;5.65;;;0.80;;
72920;SDS011;61064;51.654;5.476;2023-04-25T14:28:17;6.10;;;0.90;;
72920;SDS011;61064;51.654;5.476;2023-04-25T14:30:42;7.63;;;0.90;;
72920;SDS011;61064;51.654;5.476;2023-04-25T14:33:07;8.20;;;0.93;;
72920;SDS011;61064;51.654;5.476;2023-04-25T14:35:33;6.80;;;0.90;;
72920;SDS011;61064;51.654;5.476;2023-04-25T14:37:58;7.65;;;0.85;;
72920;SDS011;61064;51.654;5.476;2023-04-25T14:40:23;6.90;;;0.70;;
72920;SDS011;61064;51.654;5.476;2023-04-25T14:42:49;7.17;;;0.87;;
72920;SDS011;61064;51.654;5.476;2023-04-25T14:45:16;6.82;;;0.88;;
72920;SDS011;61064;51.654;5.476;2023-04-25T14:47:41;6.23;;;0.90;;